sensor_id;sensor_type;location;lat;lon;timestamp;pressure;altitude;pressure_sealevel;temperature;humidity
41632;BME280;37452;51.938;4.624;2023-05-21T00:00:49;77280.97;;;-142.75;100.00
41632;BME280;37452;51.938;4.624;2023-05-21T00:03:15;77280.97;;;-142.75;100.00
41632;BME280;37452;51.938;4.624;2023-05-21T00:05:41;77282.94;;;-142.75;100.00
41632;BME280;37452;51.938;4.624;2023-05-21T00:08:06;77280.97;;;-142.75;100.00
41632;BME280;37452;51.938;4.624;2023-05-21T00:10:31;77269.16;;;-142.75;100.00
41632;BME280;37452;51.938;4.624;2023-05-21T00:12:57;77251.44;;;-142.75;100.00
41632;BME280;37452;51.938;4.624;2023-05-21T00:15:22;77241.59;;;-142.75;100.00
41632;BME280;37452;51.938;4.624;2023-05-21T00:17:47;77233.72;;;-142.75;100.00
41632;BME280;37452;51.938;4.624;2023-05-21T00:20:12;77219.94;;;-142.75;100.00
41632;BME280;37452;51.938;4.624;2023-05-21T00:22:38;77208.13;;;-142.75;100.00
41632;BME280;37452;51.938;4.624;2023-05-21T00:25:04;77196.31;;;-142.75;100.00
41632;BME280;37452;51.938;4.624;2023-05-21T00:27:29;77198.28;;;-142.75;100.00
41632;BME280;37452;51.938;4.624;2023-05-21T00:29:54;77204.19;;;-142.75;100.00
41632;BME280;37452;51.938;4.624;2023-05-21T00:32:20;77202.22;;;-142.75;100.00
41632;BME280;37452;51.938;4.624;2023-05-21T00:34:45;77196.31;;;-142.75;100.00
41632;BME280;37452;51.938;4.624;2023-05-21T00:37:11;77190.41;;;-142.75;100.00
41632;BME280;37452;51.938;4.624;2023-05-21T00:39:39;77188.44;;;-142.75;100.00
41632;BME280;37452;51.938;4.624;2023-05-21T00:42:04;77182.53;;;-142.75;100.00
41632;BME280;37452;51.938;4.624;2023-05-21T00:44:29;77176.63;;;-142.75;100.00
41632;BME280;37452;51.938;4.624;2023-05-21T00:46:58;77172.69;;;-142.75;100.00
41632;BME280;37452;51.938;4.624;2023-05-21T00:49:26;77166.78;;;-142.75;100.00
41632;BME280;37452;51.938;4.624;2023-05-21T00:51:51;77170.72;;;-142.75;100.00
41632;BME280;37452;51.938;4.624;2023-05-21T00:54:16;77164.81;;;-142.75;100.00
41632;BME280;37452;51.938;4.624;2023-05-21T00:56:42;77164.81;;;-142.75;100.00
41632;BME280;37452;51.938;4.624;2023-05-21T00:59:07;77149.06;;;-142.75;100.00
41632;BME280;37452;51.938;4.624;2023-05-21T01:01:33;77145.13;;;-142.75;100.00
41632;BME280;37452;51.938;4.624;2023-05-21T01:04:00;77137.25;;;-142.75;100.00
41632;BME280;37452;51.938;4.624;2023-05-21T01:06:26;77129.38;;;-142.75;100.00
41632;BME280;37452;51.938;4.624;2023-05-21T01:08:52;77133.31;;;-142.75;100.00
41632;BME280;37452;51.938;4.624;2023-05-21T01:11:17;77127.41;;;-142.75;100.00
41632;BME280;37452;51.938;4.624;2023-05-21T01:13:42;77113.63;;;-142.75;100.00
41632;BME280;37452;51.938;4.624;2023-05-21T01:16:10;77105.75;;;-142.75;100.00
41632;BME280;37452;51.938;4.624;2023-05-21T01:18:37;77095.91;;;-142.75;100.00
41632;BME280;37452;51.938;4.624;2023-05-21T01:21:03;77097.88;;;-142.75;100.00
41632;BME280;37452;51.938;4.624;2023-05-21T01:23:28;77097.88;;;-142.75;100.00
41632;BME280;37452;51.938;4.624;2023-05-21T01:25:53;77091.97;;;-142.75;100.00
41632;BME280;37452;51.938;4.624;2023-05-21T01:28:18;77086.06;;;-142.75;100.00
41632;BME280;37452;51.938;4.624;2023-05-21T01:30:44;77078.19;;;-142.75;100.00
41632;BME280;37452;51.938;4.624;2023-05-21T01:33:14;77078.19;;;-142.75;100.00
41632;BME280;37452;51.938;4.624;2023-05-21T01:35:43;77078.19;;;-142.75;100.00
41632;BME280;37452;51.938;4.624;2023-05-21T01:38:25;77074.25;;;-142.75;100.00
41632;BME280;37452;51.938;4.624;2023-05-21T01:41:02;77070.31;;;-142.75;100.00
41632;BME280;37452;51.938;4.624;2023-05-21T01:43:31;77058.50;;;-142.75;100.00
41632;BME280;37452;51.938;4.624;2023-05-21T01:45:58;77070.31;;;-142.75;100.00
41632;BME280;37452;51.938;4.624;2023-05-21T01:48:24;77062.44;;;-142.75;100.00
41632;BME280;37452;51.938;4.624;2023-05-21T01:50:51;77058.50;;;-142.75;100.00
41632;BME280;37452;51.938;4.624;2023-05-21T01:53:19;77050.63;;;-142.75;100.00
41632;BME280;37452;51.938;4.624;2023-05-21T01:55:44;77066.38;;;-142.75;100.00
41632;BME280;37452;51.938;4.624;2023-05-21T01:58:09;77056.53;;;-142.75;100.00
41632;BME280;37452;51.938;4.624;2023-05-21T02:00:35;77052.59;;;-142.75;100.00
41632;BME280;37452;51.938;4.624;2023-05-21T02:03:01;77050.63;;;-142.75;100.00
41632;BME280;37452;51.938;4.624;2023-05-21T02:05:26;77048.66;;;-142.75;100.00
41632;BME280;37452;51.938;4.624;2023-05-21T02:07:51;77042.75;;;-142.75;100.00
41632;BME280;37452;51.938;4.624;2023-05-21T02:10:17;77046.69;;;-142.75;100.00
41632;BME280;37452;51.938;4.624;2023-05-21T02:12:42;77036.84;;;-142.75;100.00
41632;BME280;37452;51.938;4.624;2023-05-21T02:15:08;77038.81;;;-142.75;100.00
41632;BME280;37452;51.938;4.624;2023-05-21T02:17:33;77038.81;;;-142.75;100.00
41632;BME280;37452;51.938;4.624;2023-05-21T02:19:59;77032.91;;;-142.75;100.00
41632;BME280;37452;51.938;4.624;2023-05-21T02:22:41;77028.97;;;-142.75;100.00
41632;BME280;37452;51.938;4.624;2023-05-21T02:25:07;77027.00;;;-142.75;100.00
41632;BME280;37452;51.938;4.624;2023-05-21T02:27:33;77027.00;;;-142.75;100.00
41632;BME280;37452;51.938;4.624;2023-05-21T02:29:59;77028.97;;;-142.75;100.00
41632;BME280;37452;51.938;4.624;2023-05-21T02:32:24;77030.94;;;-142.75;100.00
41632;BME280;37452;51.938;4.624;2023-05-21T02:34:50;77030.94;;;-142.75;100.00
41632;BME280;37452;51.938;4.624;2023-05-21T02:37:15;77038.81;;;-142.75;100.00
41632;BME280;37452;51.938;4.624;2023-05-21T02:39:41;77034.88;;;-142.75;100.00
41632;BME280;37452;51.938;4.624;2023-05-21T02:42:06;77025.03;;;-142.75;100.00
41632;BME280;37452;51.938;4.624;2023-05-21T02:44:31;77023.06;;;-142.75;100.00
41632;BME280;37452;51.938;4.624;2023-05-21T02:46:57;77030.94;;;-142.75;100.00
41632;BME280;37452;51.938;4.624;2023-05-21T02:49:22;77034.88;;;-142.75;100.00
41632;BME280;37452;51.938;4.624;2023-05-21T02:51:47;77038.81;;;-142.75;100.00
41632;BME280;37452;51.938;4.624;2023-05-21T02:54:13;77038.81;;;-142.75;100.00
41632;BME280;37452;51.938;4.624;2023-05-21T02:56:38;77027.00;;;-142.75;100.00
41632;BME280;37452;51.938;4.624;2023-05-21T02:59:03;77030.94;;;-142.75;100.00
41632;BME280;37452;51.938;4.624;2023-05-21T03:01:29;77030.94;;;-142.75;100.00
41632;BME280;37452;51.938;4.624;2023-05-21T03:03:54;77023.06;;;-142.75;100.00
41632;BME280;37452;51.938;4.624;2023-05-21T03:06:19;77030.94;;;-142.75;100.00
41632;BME280;37452;51.938;4.624;2023-05-21T03:08:44;77034.88;;;-142.75;100.00
41632;BME280;37452;51.938;4.624;2023-05-21T03:11:10;77025.03;;;-142.75;100.00
41632;BME280;37452;51.938;4.624;2023-05-21T03:13:35;77025.03;;;-142.75;100.00
41632;BME280;37452;51.938;4.624;2023-05-21T03:16:00;77027.00;;;-142.75;100.00
41632;BME280;37452;51.938;4.624;2023-05-21T03:18:25;77019.13;;;-142.75;100.00
41632;BME280;37452;51.938;4.624;2023-05-21T03:20:50;77013.22;;;-142.75;100.00
41632;BME280;37452;51.938;4.624;2023-05-21T03:23:16;77019.13;;;-142.75;100.00
41632;BME280;37452;51.938;4.624;2023-05-21T03:25:41;77019.13;;;-142.75;100.00
41632;BME280;37452;51.938;4.624;2023-05-21T03:28:07;77021.09;;;-142.75;100.00
41632;BME280;37452;51.938;4.624;2023-05-21T03:30:34;77013.22;;;-142.75;100.00
41632;BME280;37452;51.938;4.624;2023-05-21T03:32:59;77019.13;;;-142.75;100.00
41632;BME280;37452;51.938;4.624;2023-05-21T03:35:24;77027.00;;;-142.75;100.00
41632;BME280;37452;51.938;4.624;2023-05-21T03:37:50;77027.00;;;-142.75;100.00
41632;BME280;37452;51.938;4.624;2023-05-21T03:40:15;77023.06;;;-142.75;100.00
41632;BME280;37452;51.938;4.624;2023-05-21T03:42:40;77027.00;;;-142.75;100.00
41632;BME280;37452;51.938;4.624;2023-05-21T03:45:05;77023.06;;;-142.75;100.00
41632;BME280;37452;51.938;4.624;2023-05-21T03:47:31;77027.00;;;-142.75;100.00
41632;BME280;37452;51.938;4.624;2023-05-21T03:49:56;77027.00;;;-142.75;100.00
41632;BME280;37452;51.938;4.624;2023-05-21T03:52:21;77030.94;;;-142.75;100.00
41632;BME280;37452;51.938;4.624;2023-05-21T03:54:47;77034.88;;;-142.75;100.00
41632;BME280;37452;51.938;4.624;2023-05-21T03:57:12;77034.88;;;-142.75;100.00
41632;BME280;37452;51.938;4.624;2023-05-21T03:59:37;77027.00;;;-142.75;100.00
41632;BME280;37452;51.938;4.624;2023-05-21T04:02:02;77030.94;;;-142.75;100.00
41632;BME280;37452;51.938;4.624;2023-05-21T04:04:28;77030.94;;;-142.75;100.00
41632;BME280;37452;51.938;4.624;2023-05-21T04:06:53;77030.94;;;-142.75;100.00
41632;BME280;37452;51.938;4.624;2023-05-21T04:09:19;77013.22;;;-142.75;100.00
41632;BME280;37452;51.938;4.624;2023-05-21T04:11:44;77019.13;;;-142.75;100.00
41632;BME280;37452;51.938;4.624;2023-05-21T04:14:10;77025.03;;;-142.75;100.00
41632;BME280;37452;51.938;4.624;2023-05-21T04:16:36;77015.19;;;-142.75;100.00
41632;BME280;37452;51.938;4.624;2023-05-21T04:19:02;77009.28;;;-142.75;100.00
41632;BME280;37452;51.938;4.624;2023-05-21T04:21:27;77015.19;;;-142.75;100.00
41632;BME280;37452;51.938;4.624;2023-05-21T04:23:52;77025.03;;;-142.75;100.00
41632;BME280;37452;51.938;4.624;2023-05-21T04:26:18;77021.09;;;-142.75;100.00
41632;BME280;37452;51.938;4.624;2023-05-21T04:28:43;77027.00;;;-142.75;100.00
41632;BME280;37452;51.938;4.624;2023-05-21T04:31:09;77021.09;;;-142.75;100.00
41632;BME280;37452;51.938;4.624;2023-05-21T04:33:36;77023.06;;;-142.75;100.00
41632;BME280;37452;51.938;4.624;2023-05-21T04:36:02;77021.09;;;-142.75;100.00
41632;BME280;37452;51.938;4.624;2023-05-21T04:38:27;77021.09;;;-142.75;100.00
41632;BME280;37452;51.938;4.624;2023-05-21T04:40:53;77025.03;;;-142.75;100.00
41632;BME280;37452;51.938;4.624;2023-05-21T04:43:19;77019.13;;;-142.75;100.00
41632;BME280;37452;51.938;4.624;2023-05-21T04:45:51;77019.13;;;-142.75;100.00
41632;BME280;37452;51.938;4.624;2023-05-21T04:48:18;77023.06;;;-142.75;100.00
41632;BME280;37452;51.938;4.624;2023-05-21T04:50:44;77019.13;;;-142.75;100.00
41632;BME280;37452;51.938;4.624;2023-05-21T04:53:09;77013.22;;;-142.75;100.00
41632;BME280;37452;51.938;4.624;2023-05-21T04:55:35;77017.16;;;-142.75;100.00
41632;BME280;37452;51.938;4.624;2023-05-21T04:58:06;77015.19;;;-142.75;100.00
41632;BME280;37452;51.938;4.624;2023-05-21T05:00:32;77005.34;;;-142.75;100.00
41632;BME280;37452;51.938;4.624;2023-05-21T05:03:00;77003.38;;;-142.75;100.00
41632;BME280;37452;51.938;4.624;2023-05-21T05:05:25;76997.47;;;-142.75;100.00
41632;BME280;37452;51.938;4.624;2023-05-21T05:07:50;77001.41;;;-142.75;100.00
41632;BME280;37452;51.938;4.624;2023-05-21T05:10:15;77011.25;;;-142.75;100.00
41632;BME280;37452;51.938;4.624;2023-05-21T05:12:41;76995.50;;;-142.75;100.00
41632;BME280;37452;51.938;4.624;2023-05-21T05:15:06;76995.50;;;-142.75;100.00
41632;BME280;37452;51.938;4.624;2023-05-21T05:17:31;76983.69;;;-142.75;100.00
41632;BME280;37452;51.938;4.624;2023-05-21T05:19:58;76975.81;;;-142.75;100.00
41632;BME280;37452;51.938;4.624;2023-05-21T05:22:23;76965.97;;;-142.75;100.00
41632;BME280;37452;51.938;4.624;2023-05-21T05:24:49;76956.13;;;-142.75;100.00
41632;BME280;37452;51.938;4.624;2023-05-21T05:27:14;76950.22;;;-142.75;100.00
41632;BME280;37452;51.938;4.624;2023-05-21T05:29:39;76938.41;;;-142.75;100.00
41632;BME280;37452;51.938;4.624;2023-05-21T05:32:04;76940.38;;;-142.75;100.00
41632;BME280;37452;51.938;4.624;2023-05-21T05:34:30;76920.69;;;-142.75;100.00
41632;BME280;37452;51.938;4.624;2023-05-21T05:36:56;76914.78;;;-142.75;100.00
41632;BME280;37452;51.938;4.624;2023-05-21T05:39:21;76916.75;;;-142.75;100.00
41632;BME280;37452;51.938;4.624;2023-05-21T05:41:47;76908.88;;;-142.75;100.00
41632;BME280;37452;51.938;4.624;2023-05-21T05:44:12;76899.03;;;-142.75;100.00
41632;BME280;37452;51.938;4.624;2023-05-21T05:46:37;76901.00;;;-142.75;100.00
41632;BME280;37452;51.938;4.624;2023-05-21T05:49:02;76895.09;;;-142.75;100.00
41632;BME280;37452;51.938;4.624;2023-05-21T05:51:27;76901.00;;;-142.75;100.00
41632;BME280;37452;51.938;4.624;2023-05-21T05:53:54;76889.19;;;-142.75;100.00
41632;BME280;37452;51.938;4.624;2023-05-21T05:56:19;76877.38;;;-142.75;100.00
41632;BME280;37452;51.938;4.624;2023-05-21T05:58:45;76875.41;;;-142.75;100.00
41632;BME280;37452;51.938;4.624;2023-05-21T06:01:10;76869.50;;;-142.75;100.00
41632;BME280;37452;51.938;4.624;2023-05-21T06:03:35;76877.38;;;-142.75;100.00
41632;BME280;37452;51.938;4.624;2023-05-21T06:06:00;76879.34;;;-142.75;100.00
41632;BME280;37452;51.938;4.624;2023-05-21T06:08:26;76869.50;;;-142.75;100.00
41632;BME280;37452;51.938;4.624;2023-05-21T06:10:51;76859.66;;;-142.75;100.00
41632;BME280;37452;51.938;4.624;2023-05-21T06:13:16;76845.88;;;-142.75;100.00
41632;BME280;37452;51.938;4.624;2023-05-21T06:15:41;76849.81;;;-142.75;100.00
41632;BME280;37452;51.938;4.624;2023-05-21T06:18:07;76826.19;;;-142.75;100.00
41632;BME280;37452;51.938;4.624;2023-05-21T06:20:32;76826.19;;;-142.75;100.00
41632;BME280;37452;51.938;4.624;2023-05-21T06:22:57;76834.06;;;-142.75;100.00
41632;BME280;37452;51.938;4.624;2023-05-21T06:25:22;76822.25;;;-142.75;100.00
41632;BME280;37452;51.938;4.624;2023-05-21T06:27:49;76802.56;;;-142.75;100.00
41632;BME280;37452;51.938;4.624;2023-05-21T06:30:14;76794.69;;;-142.75;100.00
41632;BME280;37452;51.938;4.624;2023-05-21T06:32:40;76775.03;;;-142.75;100.00
41632;BME280;37452;51.938;4.624;2023-05-21T06:35:05;76767.16;;;-142.75;100.00
41632;BME280;37452;51.938;4.624;2023-05-21T06:37:30;76767.16;;;-142.75;100.00
41632;BME280;37452;51.938;4.624;2023-05-21T06:39:55;76763.22;;;-142.75;100.00
41632;BME280;37452;51.938;4.624;2023-05-21T06:42:20;76739.59;;;-142.75;100.00
41632;BME280;37452;51.938;4.624;2023-05-21T06:44:46;76731.72;;;-142.75;100.00
41632;BME280;37452;51.938;4.624;2023-05-21T06:47:11;76739.59;;;-142.75;100.00
41632;BME280;37452;51.938;4.624;2023-05-21T06:49:36;76731.72;;;-142.75;100.00
41632;BME280;37452;51.938;4.624;2023-05-21T06:52:02;76721.88;;;-142.75;100.00
41632;BME280;37452;51.938;4.624;2023-05-21T06:54:27;76735.66;;;-142.75;100.00
41632;BME280;37452;51.938;4.624;2023-05-21T06:56:52;76749.44;;;-142.75;100.00
41632;BME280;37452;51.938;4.624;2023-05-21T06:59:17;76743.53;;;-142.75;100.00
41632;BME280;37452;51.938;4.624;2023-05-21T07:01:43;76739.59;;;-142.75;100.00
41632;BME280;37452;51.938;4.624;2023-05-21T07:04:08;76727.78;;;-142.75;100.00
41632;BME280;37452;51.938;4.624;2023-05-21T07:06:34;76731.72;;;-142.75;100.00
41632;BME280;37452;51.938;4.624;2023-05-21T07:09:00;76735.66;;;-142.75;100.00
41632;BME280;37452;51.938;4.624;2023-05-21T07:11:25;76719.91;;;-142.75;100.00
41632;BME280;37452;51.938;4.624;2023-05-21T07:13:52;76729.75;;;-142.75;100.00
41632;BME280;37452;51.938;4.624;2023-05-21T07:16:18;76719.91;;;-142.75;100.00
41632;BME280;37452;51.938;4.624;2023-05-21T07:18:43;76729.75;;;-142.75;100.00
41632;BME280;37452;51.938;4.624;2023-05-21T07:21:09;76714.00;;;-142.75;100.00
41632;BME280;37452;51.938;4.624;2023-05-21T07:23:34;76708.09;;;-142.75;100.00
41632;BME280;37452;51.938;4.624;2023-05-21T07:25:59;76700.22;;;-142.75;100.00
41632;BME280;37452;51.938;4.624;2023-05-21T07:28:24;76694.31;;;-142.75;100.00
41632;BME280;37452;51.938;4.624;2023-05-21T07:30:49;76686.44;;;-142.75;100.00
41632;BME280;37452;51.938;4.624;2023-05-21T07:33:15;76696.28;;;-142.75;100.00
41632;BME280;37452;51.938;4.624;2023-05-21T07:35:40;76690.38;;;-142.75;100.00
41632;BME280;37452;51.938;4.624;2023-05-21T07:38:06;76696.28;;;-142.75;100.00
41632;BME280;37452;51.938;4.624;2023-05-21T07:40:31;76692.34;;;-142.75;100.00
41632;BME280;37452;51.938;4.624;2023-05-21T07:42:56;76670.69;;;-142.75;100.00
41632;BME280;37452;51.938;4.624;2023-05-21T07:45:21;76654.94;;;-142.75;100.00
41632;BME280;37452;51.938;4.624;2023-05-21T07:47:46;76647.06;;;-142.75;100.00
41632;BME280;37452;51.938;4.624;2023-05-21T07:50:12;76649.03;;;-142.75;100.00
41632;BME280;37452;51.938;4.624;2023-05-21T07:52:37;76625.41;;;-142.75;100.00
41632;BME280;37452;51.938;4.624;2023-05-21T07:55:03;76629.34;;;-142.75;100.00
41632;BME280;37452;51.938;4.624;2023-05-21T07:57:28;76621.47;;;-142.75;100.00
41632;BME280;37452;51.938;4.624;2023-05-21T07:59:53;76615.56;;;-142.75;100.00
41632;BME280;37452;51.938;4.624;2023-05-21T08:02:18;76631.31;;;-142.75;100.00
41632;BME280;37452;51.938;4.624;2023-05-21T08:04:44;76623.44;;;-142.75;100.00
41632;BME280;37452;51.938;4.624;2023-05-21T08:07:09;76627.38;;;-142.75;100.00
41632;BME280;37452;51.938;4.624;2023-05-21T08:09:34;76615.56;;;-142.75;100.00
41632;BME280;37452;51.938;4.624;2023-05-21T08:11:59;76625.41;;;-142.75;100.00
41632;BME280;37452;51.938;4.624;2023-05-21T08:14:25;76605.72;;;-142.75;100.00
41632;BME280;37452;51.938;4.624;2023-05-21T08:16:50;76605.72;;;-142.75;100.00
41632;BME280;37452;51.938;4.624;2023-05-21T08:19:15;76601.78;;;-142.75;100.00
41632;BME280;37452;51.938;4.624;2023-05-21T08:21:40;76582.09;;;-142.75;100.00
41632;BME280;37452;51.938;4.624;2023-05-21T08:24:06;76584.06;;;-142.75;100.00
41632;BME280;37452;51.938;4.624;2023-05-21T08:26:31;76570.28;;;-142.75;100.00
41632;BME280;37452;51.938;4.624;2023-05-21T08:28:56;76570.28;;;-142.75;100.00
41632;BME280;37452;51.938;4.624;2023-05-21T08:31:21;76566.34;;;-142.75;100.00
41632;BME280;37452;51.938;4.624;2023-05-21T08:33:50;76554.53;;;-142.75;100.00
41632;BME280;37452;51.938;4.624;2023-05-21T08:36:16;76530.91;;;-142.75;100.00
41632;BME280;37452;51.938;4.624;2023-05-21T08:38:41;76501.41;;;-142.75;100.00
41632;BME280;37452;51.938;4.624;2023-05-21T08:41:07;76505.34;;;-142.75;100.00
41632;BME280;37452;51.938;4.624;2023-05-21T08:43:33;76475.81;;;-142.75;100.00
41632;BME280;37452;51.938;4.624;2023-05-21T08:46:01;76477.78;;;-142.75;100.00
41632;BME280;37452;51.938;4.624;2023-05-21T08:48:27;76479.75;;;-142.75;100.00
41632;BME280;37452;51.938;4.624;2023-05-21T08:50:54;76483.69;;;-142.75;100.00
41632;BME280;37452;51.938;4.624;2023-05-21T08:53:20;76505.34;;;-142.75;100.00
41632;BME280;37452;51.938;4.624;2023-05-21T08:55:45;76495.50;;;-142.75;100.00
41632;BME280;37452;51.938;4.624;2023-05-21T08:58:11;76495.50;;;-142.75;100.00
41632;BME280;37452;51.938;4.624;2023-05-21T09:00:37;76471.88;;;-142.75;100.00
41632;BME280;37452;51.938;4.624;2023-05-21T09:03:05;76452.19;;;-142.75;100.00
41632;BME280;37452;51.938;4.624;2023-05-21T09:05:38;76456.13;;;-142.75;100.00
41632;BME280;37452;51.938;4.624;2023-05-21T09:08:04;76444.31;;;-142.75;100.00
41632;BME280;37452;51.938;4.624;2023-05-21T09:10:34;76450.22;;;-142.75;100.00
41632;BME280;37452;51.938;4.624;2023-05-21T09:13:00;76430.53;;;-142.75;100.00
41632;BME280;37452;51.938;4.624;2023-05-21T09:15:26;76401.00;;;-142.75;100.00
41632;BME280;37452;51.938;4.624;2023-05-21T09:17:51;76395.09;;;-142.75;100.00
41632;BME280;37452;51.938;4.624;2023-05-21T09:20:17;76369.50;;;-142.75;100.00
41632;BME280;37452;51.938;4.624;2023-05-21T09:22:49;76363.59;;;-142.75;100.00
41632;BME280;37452;51.938;4.624;2023-05-21T09:25:15;76369.50;;;-142.75;100.00
41632;BME280;37452;51.938;4.624;2023-05-21T09:27:41;76347.84;;;-142.75;100.00
41632;BME280;37452;51.938;4.624;2023-05-21T09:30:10;76330.16;;;-142.75;100.00
41632;BME280;37452;51.938;4.624;2023-05-21T09:32:36;76340.00;;;-142.75;100.00
41632;BME280;37452;51.938;4.624;2023-05-21T09:37:57;76271.09;;;-142.75;100.00
41632;BME280;37452;51.938;4.624;2023-05-21T09:40:22;76231.72;;;-142.75;100.00
41632;BME280;37452;51.938;4.624;2023-05-21T09:42:48;76192.38;;;-142.75;100.00
41632;BME280;37452;51.938;4.624;2023-05-21T09:45:20;76168.75;;;-142.75;100.00
41632;BME280;37452;51.938;4.624;2023-05-21T09:47:46;76172.69;;;-142.75;97.98
41632;BME280;37452;51.938;4.624;2023-05-21T09:50:12;76145.13;;;-142.75;98.64
41632;BME280;37452;51.938;4.624;2023-05-21T09:52:38;76115.59;;;-142.75;97.34
41632;BME280;37452;51.938;4.624;2023-05-21T09:55:04;76091.97;;;-142.75;98.74
41632;BME280;37452;51.938;4.624;2023-05-21T09:57:30;76121.50;;;-142.75;92.96
41632;BME280;37452;51.938;4.624;2023-05-21T09:59:55;76101.81;;;-142.75;97.28
41632;BME280;37452;51.938;4.624;2023-05-21T10:02:21;76086.06;;;-142.75;94.59
41632;BME280;37452;51.938;4.624;2023-05-21T10:04:49;76064.44;;;-142.75;94.38
41632;BME280;37452;51.938;4.624;2023-05-21T10:07:19;76029.00;;;-142.75;92.63
41632;BME280;37452;51.938;4.624;2023-05-21T10:09:52;76009.31;;;-142.75;93.30
41632;BME280;37452;51.938;4.624;2023-05-21T10:12:18;76019.16;;;-142.75;93.54
41632;BME280;37452;51.938;4.624;2023-05-21T10:14:45;76017.19;;;-142.75;90.56
41632;BME280;37452;51.938;4.624;2023-05-21T10:17:15;75956.19;;;-142.75;90.52
41632;BME280;37452;51.938;4.624;2023-05-21T10:19:41;75920.75;;;-142.75;93.17
41632;BME280;37452;51.938;4.624;2023-05-21T10:22:06;75897.13;;;-142.75;90.82
41632;BME280;37452;51.938;4.624;2023-05-21T10:24:32;75912.88;;;-142.75;88.54
41632;BME280;37452;51.938;4.624;2023-05-21T10:26:57;75932.56;;;-142.75;89.15
41632;BME280;37452;51.938;4.624;2023-05-21T10:29:22;75946.34;;;-142.75;87.43
41632;BME280;37452;51.938;4.624;2023-05-21T10:31:49;75975.84;;;-142.75;86.59
41632;BME280;37452;51.938;4.624;2023-05-21T10:34:16;75979.78;;;-142.75;86.33
41632;BME280;37452;51.938;4.624;2023-05-21T10:36:42;75979.78;;;-142.75;88.84
41632;BME280;37452;51.938;4.624;2023-05-21T10:39:08;75940.44;;;-142.75;87.87
41632;BME280;37452;51.938;4.624;2023-05-21T10:41:40;75912.88;;;-142.75;87.70
41632;BME280;37452;51.938;4.624;2023-05-21T10:46:42;75844.00;;;-142.75;87.49
41632;BME280;37452;51.938;4.624;2023-05-21T10:52:17;75806.59;;;-142.75;84.11
41632;BME280;37452;51.938;4.624;2023-05-21T10:57:15;75840.06;;;-142.75;83.12
41632;BME280;37452;51.938;4.624;2023-05-21T10:59:44;75830.22;;;-142.75;83.35
41632;BME280;37452;51.938;4.624;2023-05-21T11:02:12;75828.25;;;-142.75;84.01
41632;BME280;37452;51.938;4.624;2023-05-21T11:04:37;75830.22;;;-142.75;83.68
41632;BME280;37452;51.938;4.624;2023-05-21T11:07:06;75838.09;;;-142.75;83.11
41632;BME280;37452;51.938;4.624;2023-05-21T11:09:32;75840.06;;;-142.75;83.82
41632;BME280;37452;51.938;4.624;2023-05-21T11:11:57;75792.81;;;-142.75;85.08
41632;BME280;37452;51.938;4.624;2023-05-21T11:14:27;75755.44;;;-142.75;82.99
41632;BME280;37452;51.938;4.624;2023-05-21T11:16:55;75782.97;;;-142.75;80.82
41632;BME280;37452;51.938;4.624;2023-05-21T11:19:21;75788.88;;;-142.75;81.17
41632;BME280;37452;51.938;4.624;2023-05-21T11:21:49;75761.34;;;-142.75;82.79
41632;BME280;37452;51.938;4.624;2023-05-21T11:24:18;75802.66;;;-142.75;81.80
41632;BME280;37452;51.938;4.624;2023-05-21T11:29:12;75755.44;;;-142.75;80.51
41632;BME280;37452;51.938;4.624;2023-05-21T11:31:38;75721.97;;;-142.75;81.70
41632;BME280;37452;51.938;4.624;2023-05-21T11:36:43;75753.47;;;-142.75;80.09
41632;BME280;37452;51.938;4.624;2023-05-21T11:39:12;75749.53;;;-142.75;80.45
41632;BME280;37452;51.938;4.624;2023-05-21T11:44:13;75769.19;;;-142.75;82.52
41632;BME280;37452;51.938;4.624;2023-05-21T11:46:39;75767.22;;;-142.75;82.24
41632;BME280;37452;51.938;4.624;2023-05-21T11:49:04;75761.34;;;-142.75;80.90
41632;BME280;37452;51.938;4.624;2023-05-21T11:51:30;75739.69;;;-142.75;81.78
41632;BME280;37452;51.938;4.624;2023-05-21T11:53:55;75747.56;;;-142.75;83.42
41632;BME280;37452;51.938;4.624;2023-05-21T11:56:21;75749.53;;;-142.75;82.84
41632;BME280;37452;51.938;4.624;2023-05-21T11:58:48;75763.28;;;-142.75;83.67
41632;BME280;37452;51.938;4.624;2023-05-21T12:01:25;75775.09;;;-142.75;83.66
41632;BME280;37452;51.938;4.624;2023-05-21T12:03:51;75798.72;;;-142.75;83.09
41632;BME280;37452;51.938;4.624;2023-05-21T12:06:16;75779.03;;;-142.75;83.38
41632;BME280;37452;51.938;4.624;2023-05-21T12:08:42;75792.81;;;-142.75;84.72
41632;BME280;37452;51.938;4.624;2023-05-21T12:11:07;75842.03;;;-142.75;84.08
41632;BME280;37452;51.938;4.624;2023-05-21T12:13:32;75853.84;;;-142.75;82.67
41632;BME280;37452;51.938;4.624;2023-05-21T12:15:58;75859.72;;;-142.75;83.99
41632;BME280;37452;51.938;4.624;2023-05-21T12:18:23;75822.34;;;-142.75;84.99
41632;BME280;37452;51.938;4.624;2023-05-21T12:20:52;75802.66;;;-142.75;84.63
41632;BME280;37452;51.938;4.624;2023-05-21T12:23:23;75788.88;;;-142.75;84.96
41632;BME280;37452;51.938;4.624;2023-05-21T12:25:49;75796.75;;;-142.75;83.64
41632;BME280;37452;51.938;4.624;2023-05-21T12:28:15;75753.47;;;-142.75;86.16
41632;BME280;37452;51.938;4.624;2023-05-21T12:30:40;75702.28;;;-142.75;82.90
41632;BME280;37452;51.938;4.624;2023-05-21T12:33:05;75698.34;;;-142.75;84.64
41632;BME280;37452;51.938;4.624;2023-05-21T12:35:31;75686.53;;;-142.75;82.84
41632;BME280;37452;51.938;4.624;2023-05-21T12:37:56;75660.97;;;-142.75;81.65
41632;BME280;37452;51.938;4.624;2023-05-21T12:40:21;75674.72;;;-142.75;81.60
41632;BME280;37452;51.938;4.624;2023-05-21T12:42:58;75692.44;;;-142.75;80.39
41632;BME280;37452;51.938;4.624;2023-05-21T12:45:24;75660.97;;;-142.75;81.93